Antrim, New Hampshire
Current Conditions -  °F | °C
As of 5:52 PM on Thursday 27 Nov 2014 (Local Time) from KAFN Reporting Station
NA  
Wind Chill: 27°   Ceiling: NA
Heat Index: 27°   Visibility: 10mi
Dew Point: 23°   Wind: 0mph
Humidity: 85%   Direction: NA
Pressure: 29.95"   Gusts: NA
Location:  43.03°N, 71.95°W
Report Text: KAFN 272252Z AUTO 00000KT 10SM M03/M05 A2995 RMK AO2 SLP161 I1000 T10281050 $
Loading
Personal Weather Stations






























Interactive Weather Map New forecast layout! Learn more

10-Day Weather Forecast

Advertisements
Track Severe Weather on mobile